Time;durP1;ratioP1;P1;durP2;ratioP2;P2;SDS_P1;SDS_P2;PMS_P1;PMS_P2;Temp;Humidity;BMP_temperature;BMP_pressure;BME280_temperature;BME280_humidity;BME280_pressure;Samples;Min_cycle;Max_cycle;Signal;HPM_P1;HPM_P2
2023/03/08 00:02:23;;;;;;;10.18;8.77;;;;;;;;;;5052268;28;20189;-66
2023/03/08 00:04:56;;;;;;;13.20;9.82;;;;;;;;;;5052296;28;20210;-66
2023/03/08 00:07:24;;;;;;;13.35;8.50;;;;;;;;;;5053123;28;20555;-65
2023/03/08 00:09:53;;;;;;;8.82;7.93;;;;;;;;;;5052393;28;20211;-66
2023/03/08 00:12:21;;;;;;;11.52;9.15;;;;;;;;;;5051808;28;20201;-66
2023/03/08 00:14:49;;;;;;;11.48;8.80;;;;;;;;;;5052949;28;20619;-67
2023/03/08 00:17:18;;;;;;;9.35;8.48;;;;;;;;;;5052859;28;20201;-66
2023/03/08 00:19:46;;;;;;;11.48;8.75;;;;;;;;;;5053294;28;20257;-67
2023/03/08 00:22:15;;;;;;;12.75;9.63;;;;;;;;;;5052625;28;20200;-66
2023/03/08 00:24:44;;;;;;;10.82;8.35;;;;;;;;;;5052816;28;20734;-66
2023/03/08 00:27:12;;;;;;;10.15;9.15;;;;;;;;;;5053026;28;20200;-66
2023/03/08 00:29:41;;;;;;;9.52;8.18;;;;;;;;;;5051722;28;20208;-67
2023/03/08 00:32:09;;;;;;;13.13;9.45;;;;;;;;;;5051962;28;20229;-67
2023/03/08 00:34:37;;;;;;;11.02;8.90;;;;;;;;;;5052481;28;20207;-66
2023/03/08 00:37:05;;;;;;;9.63;8.60;;;;;;;;;;5052156;28;20200;-66
2023/03/08 00:39:35;;;;;;;11.43;8.88;;;;;;;;;;5053598;28;20211;-66
2023/03/08 00:42:05;;;;;;;11.80;9.40;;;;;;;;;;5051825;28;20192;-66
2023/03/08 00:44:33;;;;;;;10.55;9.02;;;;;;;;;;5035333;28;20246;-66
2023/03/08 00:47:02;;;;;;;10.88;8.50;;;;;;;;;;5053122;28;20205;-66
2023/03/08 00:49:30;;;;;;;12.82;8.85;;;;;;;;;;5051658;28;20201;-66
2023/03/08 00:51:59;;;;;;;8.38;7.57;;;;;;;;;;5053512;28;20224;-66
2023/03/08 00:54:27;;;;;;;12.60;9.48;;;;;;;;;;5052558;28;20679;-66
2023/03/08 00:56:57;;;;;;;14.75;9.98;;;;;;;;;;5052343;28;20201;-66
2023/03/08 00:59:25;;;;;;;14.75;9.60;;;;;;;;;;5051643;28;20585;-66
2023/03/08 01:01:53;;;;;;;13.80;8.98;;;;;;;;;;5050268;28;20711;-66
2023/03/08 01:04:21;;;;;;;13.50;9.10;;;;;;;;;;5051114;28;20207;-66
2023/03/08 01:06:50;;;;;;;11.05;8.75;;;;;;;;;;5051625;28;20668;-66
2023/03/08 01:09:18;;;;;;;13.32;9.50;;;;;;;;;;5046819;28;20655;-66
2023/03/08 01:11:46;;;;;;;12.52;9.10;;;;;;;;;;5050718;28;20219;-66
2023/03/08 01:14:16;;;;;;;10.85;8.55;;;;;;;;;;5052611;28;20741;-66
2023/03/08 01:16:44;;;;;;;10.32;9.10;;;;;;;;;;5050843;28;20201;-66
2023/03/08 01:19:13;;;;;;;12.68;8.73;;;;;;;;;;5051723;28;20207;-66
2023/03/08 01:21:43;;;;;;;9.48;8.27;;;;;;;;;;5051517;28;20200;-66
2023/03/08 01:24:12;;;;;;;12.10;8.85;;;;;;;;;;5050789;28;20226;-66
2023/03/08 01:26:40;;;;;;;12.43;9.07;;;;;;;;;;5052536;28;20570;-66
2023/03/08 01:29:09;;;;;;;16.45;10.30;;;;;;;;;;5052399;28;20261;-67
2023/03/08 01:31:38;;;;;;;23.52;11.40;;;;;;;;;;5054225;28;20238;-66
2023/03/08 01:34:07;;;;;;;13.75;9.65;;;;;;;;;;5055199;28;20212;-66
2023/03/08 01:36:35;;;;;;;11.27;9.23;;;;;;;;;;5056225;28;20597;-66
2023/03/08 01:39:03;;;;;;;14.88;9.27;;;;;;;;;;5056714;28;20214;-66
2023/03/08 01:41:32;;;;;;;13.25;10.15;;;;;;;;;;5056860;28;20200;-66
2023/03/08 01:44:02;;;;;;;13.82;9.52;;;;;;;;;;5054848;28;20265;-66
2023/03/08 01:46:31;;;;;;;12.95;7.72;;;;;;;;;;5057035;28;20230;-66
2023/03/08 01:49:16;;;;;;;11.48;8.95;;;;;;;;;;5038382;28;20201;-66
2023/03/08 01:51:46;;;;;;;13.27;9.30;;;;;;;;;;5052996;28;20205;-66
2023/03/08 01:54:15;;;;;;;10.93;9.32;;;;;;;;;;5055159;28;20205;-66
2023/03/08 01:56:45;;;;;;;11.70;9.80;;;;;;;;;;5055720;28;20570;-66
2023/03/08 01:59:14;;;;;;;11.85;9.18;;;;;;;;;;5053525;28;20188;-66
2023/03/08 02:01:43;;;;;;;10.02;9.00;;;;;;;;;;5037402;28;20203;-66
2023/03/08 02:04:12;;;;;;;14.35;9.98;;;;;;;;;;5053910;28;20206;-66
2023/03/08 02:06:42;;;;;;;13.73;9.30;;;;;;;;;;5055411;28;20205;-66
2023/03/08 02:09:11;;;;;;;13.30;9.77;;;;;;;;;;5054304;28;20218;-66
2023/03/08 02:11:40;;;;;;;15.18;9.93;;;;;;;;;;5055076;28;20242;-66
2023/03/08 02:14:08;;;;;;;14.50;10.02;;;;;;;;;;5054687;28;20207;-66
2023/03/08 02:16:38;;;;;;;14.40;9.85;;;;;;;;;;5054469;28;20208;-66
2023/03/08 02:19:11;;;;;;;12.02;9.70;;;;;;;;;;5054207;28;20652;-66
2023/03/08 02:21:39;;;;;;;12.95;10.30;;;;;;;;;;5056170;28;20189;-66
2023/03/08 02:24:18;;;;;;;15.65;10.32;;;;;;;;;;5054323;28;20691;-66
2023/03/08 02:26:46;;;;;;;14.85;10.13;;;;;;;;;;5055922;28;20218;-66
2023/03/08 02:29:14;;;;;;;13.70;10.50;;;;;;;;;;5055222;28;20562;-66
2023/03/08 02:31:43;;;;;;;15.90;10.98;;;;;;;;;;5055357;28;20293;-66
2023/03/08 02:34:11;;;;;;;13.30;9.93;;;;;;;;;;5054387;28;20782;-66
2023/03/08 02:36:39;;;;;;;14.75;10.80;;;;;;;;;;5054766;28;20200;-66
2023/03/08 02:39:09;;;;;;;12.35;9.98;;;;;;;;;;5054603;28;20201;-66
2023/03/08 02:41:37;;;;;;;13.05;10.13;;;;;;;;;;5054121;28;20197;-66
2023/03/08 02:44:07;;;;;;;15.60;11.05;;;;;;;;;;5054425;28;20254;-66
2023/03/08 02:46:37;;;;;;;13.35;9.45;;;;;;;;;;5054264;28;20205;-66
2023/03/08 02:49:05;;;;;;;14.25;11.38;;;;;;;;;;5054462;28;20208;-66
2023/03/08 02:51:33;;;;;;;12.48;10.15;;;;;;;;;;5054492;28;20205;-66
2023/03/08 02:54:01;;;;;;;14.13;10.05;;;;;;;;;;5055379;28;20209;-66
2023/03/08 02:56:31;;;;;;;16.25;11.40;;;;;;;;;;5053144;28;20675;-66
2023/03/08 02:58:59;;;;;;;16.60;12.68;;;;;;;;;;5052941;28;20196;-66
2023/03/08 03:01:28;;;;;;;16.17;10.63;;;;;;;;;;5052432;28;20214;-66
2023/03/08 03:03:56;;;;;;;15.38;10.55;;;;;;;;;;5052174;28;20209;-66
2023/03/08 03:06:25;;;;;;;13.85;11.43;;;;;;;;;;5052471;28;20217;-66
2023/03/08 03:08:57;;;;;;;18.98;11.77;;;;;;;;;;5053944;28;20199;-66
2023/03/08 03:11:26;;;;;;;15.23;10.30;;;;;;;;;;5051166;28;20207;-67
2023/03/08 03:13:56;;;;;;;25.42;17.13;;;;;;;;;;5052717;28;20546;-66
2023/03/08 03:16:27;;;;;;;31.20;15.30;;;;;;;;;;5053150;28;20203;-66
2023/03/08 03:18:56;;;;;;;26.08;15.93;;;;;;;;;;5052649;28;20261;-66
2023/03/08 03:21:24;;;;;;;56.47;30.95;;;;;;;;;;5052871;28;20478;-66
2023/03/08 03:23:54;;;;;;;202.57;109.45;;;;;;;;;;5054070;28;20225;-66
2023/03/08 03:26:28;;;;;;;18.27;12.40;;;;;;;;;;5052428;28;20189;-66
2023/03/08 03:29:00;;;;;;;55.90;35.35;;;;;;;;;;5052592;28;20200;-66
2023/03/08 03:31:33;;;;;;;88.50;48.58;;;;;;;;;;5053709;28;20253;-66
2023/03/08 03:34:02;;;;;;;56.08;29.67;;;;;;;;;;5053069;28;20201;-66
2023/03/08 03:36:30;;;;;;;93.75;43.70;;;;;;;;;;5053801;28;20203;-66
2023/03/08 03:38:59;;;;;;;80.35;40.70;;;;;;;;;;5052950;28;20223;-66
2023/03/08 03:41:28;;;;;;;133.10;63.33;;;;;;;;;;5052292;28;20201;-66
2023/03/08 03:44:05;;;;;;;59.00;34.30;;;;;;;;;;5054016;28;20426;-66
2023/03/08 03:46:34;;;;;;;21.52;14.82;;;;;;;;;;5052379;28;20665;-66
2023/03/08 03:49:04;;;;;;;19.40;14.57;;;;;;;;;;5044779;28;20675;-66
2023/03/08 03:51:37;;;;;;;16.65;14.27;;;;;;;;;;5053185;28;20189;-66
2023/03/08 03:54:15;;;;;;;21.65;15.73;;;;;;;;;;5053322;28;20201;-66
2023/03/08 03:56:45;;;;;;;23.77;15.35;;;;;;;;;;5035590;28;20208;-66
2023/03/08 03:59:15;;;;;;;30.90;19.67;;;;;;;;;;5050144;28;20201;-66
2023/03/08 04:01:44;;;;;;;21.98;13.15;;;;;;;;;;5038743;28;20197;-66
2023/03/08 04:04:23;;;;;;;18.10;12.65;;;;;;;;;;5050997;28;20197;-66
2023/03/08 04:06:53;;;;;;;33.33;22.10;;;;;;;;;;5051577;28;20192;-66
2023/03/08 04:09:25;;;;;;;23.23;13.85;;;;;;;;;;5051774;28;20218;-66
2023/03/08 04:12:08;;;;;;;16.73;13.18;;;;;;;;;;5053171;28;20213;-66
2023/03/08 04:14:40;;;;;;;17.15;10.77;;;;;;;;;;5052243;28;20265;-66
2023/03/08 04:17:09;;;;;;;19.45;11.63;;;;;;;;;;5053292;28;20207;-66
2023/03/08 04:19:43;;;;;;;16.02;11.23;;;;;;;;;;5051700;28;20213;-66
2023/03/08 04:22:13;;;;;;;16.55;11.65;;;;;;;;;;5051611;28;20195;-66
2023/03/08 04:24:52;;;;;;;18.95;10.35;;;;;;;;;;5052108;28;20189;-66
2023/03/08 04:27:27;;;;;;;15.60;10.73;;;;;;;;;;5051647;28;20188;-66
2023/03/08 04:29:56;;;;;;;17.30;10.65;;;;;;;;;;5051309;28;20566;-66
2023/03/08 04:32:25;;;;;;;20.33;11.13;;;;;;;;;;5050831;28;20213;-67
2023/03/08 04:34:58;;;;;;;15.23;10.55;;;;;;;;;;5051539;28;20192;-66
2023/03/08 04:37:29;;;;;;;15.20;10.63;;;;;;;;;;5034727;28;20184;-66
2023/03/08 04:40:08;;;;;;;16.85;11.50;;;;;;;;;;5051519;28;20300;-66
2023/03/08 04:42:39;;;;;;;19.23;11.80;;;;;;;;;;5050788;28;20197;-65
2023/03/08 04:45:10;;;;;;;14.93;11.32;;;;;;;;;;5050799;28;20682;-65
2023/03/08 04:47:39;;;;;;;17.80;10.70;;;;;;;;;;5051799;28;20193;-65
2023/03/08 04:50:07;;;;;;;18.70;11.50;;;;;;;;;;5041722;28;20677;-65
2023/03/08 04:52:36;;;;;;;19.63;11.68;;;;;;;;;;5050782;28;20687;-65
2023/03/08 04:55:07;;;;;;;22.10;12.20;;;;;;;;;;5052339;28;20189;-65
2023/03/08 04:57:36;;;;;;;18.70;11.05;;;;;;;;;;5051188;28;20226;-66
2023/03/08 05:00:04;;;;;;;16.27;11.88;;;;;;;;;;5050566;28;20200;-66
2023/03/08 05:02:38;;;;;;;21.02;11.63;;;;;;;;;;5049633;28;20203;-66
2023/03/08 05:05:11;;;;;;;18.73;11.05;;;;;;;;;;5049946;28;20202;-66
2023/03/08 05:07:40;;;;;;;16.63;11.52;;;;;;;;;;5051421;28;20204;-66
2023/03/08 05:10:09;;;;;;;15.63;10.77;;;;;;;;;;5049160;28;20209;-66
2023/03/08 05:12:37;;;;;;;15.40;10.75;;;;;;;;;;5050720;28;20215;-66
2023/03/08 05:15:06;;;;;;;17.17;10.68;;;;;;;;;;5052282;28;20200;-66
2023/03/08 05:17:34;;;;;;;16.17;12.13;;;;;;;;;;5050244;28;20215;-66
2023/03/08 05:20:05;;;;;;;11.93;9.98;;;;;;;;;;5050589;28;20691;-66
2023/03/08 05:22:38;;;;;;;12.48;10.15;;;;;;;;;;5050657;28;20504;-66
2023/03/08 05:25:07;;;;;;;21.23;9.88;;;;;;;;;;5050586;28;20207;-65
2023/03/08 05:27:36;;;;;;;15.98;10.85;;;;;;;;;;5051738;28;20608;-66
2023/03/08 05:30:06;;;;;;;13.25;10.52;;;;;;;;;;5050546;28;20636;-66
2023/03/08 05:32:35;;;;;;;13.00;10.40;;;;;;;;;;5051494;28;20192;-66
2023/03/08 05:35:04;;;;;;;17.77;10.77;;;;;;;;;;5052458;28;20211;-66
2023/03/08 05:37:35;;;;;;;13.93;10.48;;;;;;;;;;5052480;28;20193;-65
2023/03/08 05:40:06;;;;;;;13.48;9.50;;;;;;;;;;5051536;28;20213;-65
2023/03/08 05:42:37;;;;;;;17.05;10.13;;;;;;;;;;5051625;28;20196;-65
2023/03/08 05:45:05;;;;;;;14.00;10.48;;;;;;;;;;5051025;28;20212;-65
2023/03/08 05:47:37;;;;;;;13.80;11.15;;;;;;;;;;5050520;28;20203;-66
2023/03/08 05:50:11;;;;;;;14.50;10.13;;;;;;;;;;5051878;28;20193;-66
2023/03/08 05:52:42;;;;;;;14.82;10.50;;;;;;;;;;5048548;28;20200;-66
2023/03/08 05:55:12;;;;;;;17.95;10.90;;;;;;;;;;5051292;28;20660;-66
2023/03/08 05:57:41;;;;;;;17.38;10.77;;;;;;;;;;5050664;28;20550;-66
2023/03/08 06:00:10;;;;;;;14.50;10.18;;;;;;;;;;5050330;28;20766;-66
2023/03/08 06:02:44;;;;;;;14.75;10.50;;;;;;;;;;5047302;28;20199;-66
2023/03/08 06:05:16;;;;;;;24.02;11.95;;;;;;;;;;5032481;28;20200;-66
2023/03/08 06:07:45;;;;;;;14.60;10.45;;;;;;;;;;5048029;28;20679;-66
2023/03/08 06:10:16;;;;;;;13.77;10.40;;;;;;;;;;5051203;28;20239;-66
2023/03/08 06:12:44;;;;;;;13.15;10.20;;;;;;;;;;5050536;28;20230;-66
2023/03/08 06:15:15;;;;;;;17.27;11.32;;;;;;;;;;5050379;28;20222;-66
2023/03/08 06:17:44;;;;;;;14.00;10.32;;;;;;;;;;5053055;28;20261;-66
2023/03/08 06:20:16;;;;;;;14.20;10.40;;;;;;;;;;5049712;28;20675;-66
2023/03/08 06:22:48;;;;;;;16.90;10.77;;;;;;;;;;5043777;28;20254;-66
2023/03/08 06:25:16;;;;;;;14.23;11.07;;;;;;;;;;5054379;28;20209;-66
2023/03/08 06:27:45;;;;;;;19.00;11.38;;;;;;;;;;5051359;28;20217;-66
2023/03/08 06:30:22;;;;;;;18.10;10.40;;;;;;;;;;5034022;28;20228;-66
2023/03/08 06:32:52;;;;;;;14.93;10.77;;;;;;;;;;5053371;28;20595;-66
2023/03/08 06:35:22;;;;;;;15.48;12.00;;;;;;;;;;5053138;28;20685;-67
2023/03/08 06:37:58;;;;;;;20.20;11.50;;;;;;;;;;5052405;28;20231;-67
2023/03/08 06:40:26;;;;;;;20.33;11.20;;;;;;;;;;5054861;28;20200;-67
2023/03/08 06:42:54;;;;;;;13.10;10.07;;;;;;;;;;5054897;28;20208;-67
2023/03/08 06:45:23;;;;;;;14.60;10.18;;;;;;;;;;5053634;28;20200;-66
2023/03/08 06:47:52;;;;;;;13.52;10.30;;;;;;;;;;5054695;28;20204;-67
2023/03/08 06:50:20;;;;;;;13.82;10.07;;;;;;;;;;5053171;28;20200;-67
2023/03/08 06:52:52;;;;;;;16.58;11.27;;;;;;;;;;5053154;28;20748;-67
2023/03/08 06:55:29;;;;;;;18.73;10.45;;;;;;;;;;5052026;28;20200;-68
2023/03/08 06:57:58;;;;;;;13.98;10.38;;;;;;;;;;5053520;28;20234;-67
2023/03/08 07:00:26;;;;;;;17.50;10.85;;;;;;;;;;5054416;28;20209;-67
2023/03/08 07:02:54;;;;;;;14.88;10.77;;;;;;;;;;5055111;28;20211;-66
2023/03/08 07:05:23;;;;;;;20.98;11.57;;;;;;;;;;5054143;28;20296;-67
2023/03/08 07:07:52;;;;;;;17.98;10.38;;;;;;;;;;5054990;28;20209;-66
2023/03/08 07:10:21;;;;;;;19.20;11.40;;;;;;;;;;5055366;28;20214;-68
2023/03/08 07:12:50;;;;;;;13.57;9.52;;;;;;;;;;5054708;28;20204;-67
2023/03/08 07:15:19;;;;;;;16.90;9.75;;;;;;;;;;5055085;28;20226;-69
2023/03/08 07:17:48;;;;;;;15.13;10.48;;;;;;;;;;5054889;28;20257;-68
2023/03/08 07:20:17;;;;;;;19.55;11.32;;;;;;;;;;5055359;28;20637;-68
2023/03/08 07:22:46;;;;;;;18.95;11.40;;;;;;;;;;5056066;28;20570;-68
2023/03/08 07:25:17;;;;;;;18.38;11.48;;;;;;;;;;5055602;28;20200;-68
2023/03/08 07:27:45;;;;;;;19.13;12.40;;;;;;;;;;5054556;28;20272;-68
2023/03/08 07:30:14;;;;;;;17.80;11.73;;;;;;;;;;5053694;28;20255;-67
2023/03/08 07:32:43;;;;;;;20.20;12.98;;;;;;;;;;5056258;28;20576;-68
2023/03/08 07:35:12;;;;;;;20.55;12.52;;;;;;;;;;5056409;28;20390;-67
2023/03/08 07:37:41;;;;;;;22.40;13.30;;;;;;;;;;5055966;28;20204;-67
2023/03/08 07:40:10;;;;;;;17.45;12.43;;;;;;;;;;5055324;28;20209;-67
2023/03/08 07:42:40;;;;;;;20.77;13.27;;;;;;;;;;5055517;28;20204;-67
2023/03/08 07:45:38;;;;;;;21.80;12.38;;;;;;;;;;5037639;28;20191;-67
2023/03/08 07:48:06;;;;;;;21.63;12.02;;;;;;;;;;5054911;28;20665;-67
2023/03/08 07:50:35;;;;;;;20.40;12.55;;;;;;;;;;5055156;28;20573;-67
2023/03/08 07:53:03;;;;;;;23.27;14.07;;;;;;;;;;5054164;28;20220;-67
2023/03/08 07:55:32;;;;;;;24.08;13.50;;;;;;;;;;5055062;28;20513;-67
2023/03/08 07:58:01;;;;;;;22.95;15.15;;;;;;;;;;5053896;28;20207;-67
2023/03/08 08:00:30;;;;;;;24.05;12.35;;;;;;;;;;5054281;28;20196;-67
2023/03/08 08:02:58;;;;;;;27.20;12.68;;;;;;;;;;5052996;28;20203;-67
2023/03/08 08:05:26;;;;;;;22.85;14.20;;;;;;;;;;5052250;28;20647;-66
2023/03/08 08:07:54;;;;;;;22.38;13.70;;;;;;;;;;5054102;28;20205;-67
2023/03/08 08:10:23;;;;;;;19.88;13.05;;;;;;;;;;5054177;28;20213;-68
2023/03/08 08:12:51;;;;;;;19.65;12.30;;;;;;;;;;5053343;28;20208;-68
2023/03/08 08:15:22;;;;;;;20.35;12.45;;;;;;;;;;5053677;28;20638;-67
2023/03/08 08:17:50;;;;;;;30.90;14.75;;;;;;;;;;5053273;28;20195;-66
2023/03/08 08:20:18;;;;;;;25.83;15.45;;;;;;;;;;5050896;28;20212;-66
2023/03/08 08:22:48;;;;;;;27.27;14.35;;;;;;;;;;5050624;28;20228;-67
2023/03/08 08:25:16;;;;;;;23.05;12.95;;;;;;;;;;5053685;28;20208;-66
2023/03/08 08:27:45;;;;;;;24.95;13.40;;;;;;;;;;5053094;28;20216;-67
2023/03/08 08:30:14;;;;;;;21.33;12.55;;;;;;;;;;5053676;28;20690;-66
2023/03/08 08:32:43;;;;;;;21.70;12.80;;;;;;;;;;5052863;28;20184;-67
2023/03/08 08:35:12;;;;;;;25.58;14.20;;;;;;;;;;5053538;28;20216;-67
2023/03/08 08:37:40;;;;;;;21.38;12.38;;;;;;;;;;5053649;28;20201;-67
2023/03/08 08:40:10;;;;;;;21.33;13.43;;;;;;;;;;5053983;28;20214;-67
2023/03/08 08:42:39;;;;;;;23.85;12.82;;;;;;;;;;5053035;28;20636;-68
2023/03/08 08:45:08;;;;;;;24.17;14.02;;;;;;;;;;5053469;28;20271;-67
2023/03/08 08:47:36;;;;;;;21.88;12.43;;;;;;;;;;5053561;28;20197;-67
2023/03/08 08:50:06;;;;;;;21.35;12.68;;;;;;;;;;5053344;28;20215;-67
2023/03/08 08:52:35;;;;;;;22.48;13.73;;;;;;;;;;5053253;28;20199;-67
2023/03/08 08:55:03;;;;;;;20.38;12.40;;;;;;;;;;5053456;28;20233;-67
2023/03/08 08:57:31;;;;;;;25.58;13.23;;;;;;;;;;5053724;28;20215;-67
2023/03/08 09:00:00;;;;;;;21.80;12.70;;;;;;;;;;5053446;28;20268;-67
2023/03/08 09:02:28;;;;;;;17.90;12.15;;;;;;;;;;5051786;28;20246;-68
2023/03/08 09:04:56;;;;;;;19.08;13.15;;;;;;;;;;5052054;28;20655;-68
2023/03/08 09:07:26;;;;;;;17.35;12.40;;;;;;;;;;5052595;28;20321;-67
2023/03/08 09:09:54;;;;;;;20.60;11.75;;;;;;;;;;5053117;28;20200;-67
2023/03/08 09:12:22;;;;;;;19.90;12.35;;;;;;;;;;5052742;28;20212;-70
2023/03/08 09:14:51;;;;;;;21.02;12.63;;;;;;;;;;5053587;28;20216;-67
2023/03/08 09:17:19;;;;;;;23.48;12.88;;;;;;;;;;5053037;28;20683;-67
2023/03/08 09:19:47;;;;;;;25.83;14.18;;;;;;;;;;5053270;28;20205;-67
2023/03/08 09:22:18;;;;;;;22.08;13.88;;;;;;;;;;5047291;28;20234;-67
2023/03/08 09:24:49;;;;;;;21.08;14.25;;;;;;;;;;5053249;28;20246;-67
2023/03/08 09:27:17;;;;;;;22.27;13.85;;;;;;;;;;5053538;28;20211;-66
2023/03/08 09:29:46;;;;;;;25.75;14.65;;;;;;;;;;5052451;28;20231;-67
2023/03/08 09:32:14;;;;;;;32.00;13.75;;;;;;;;;;5052527;28;20181;-66
2023/03/08 09:34:42;;;;;;;36.40;18.98;;;;;;;;;;5050772;28;20699;-67
2023/03/08 09:37:11;;;;;;;26.40;15.75;;;;;;;;;;5052342;28;20241;-67
2023/03/08 09:39:39;;;;;;;23.17;14.02;;;;;;;;;;5052762;28;20305;-67
2023/03/08 09:42:19;;;;;;;31.45;17.60;;;;;;;;;;5052118;28;20201;-67
2023/03/08 09:45:06;;;;;;;26.35;14.35;;;;;;;;;;5051749;28;20185;-67
2023/03/08 09:47:40;;;;;;;21.73;13.52;;;;;;;;;;5051678;28;20196;-67
2023/03/08 09:50:21;;;;;;;26.15;16.08;;;;;;;;;;5051879;28;20189;-67
2023/03/08 09:52:52;;;;;;;25.70;15.13;;;;;;;;;;5056984;28;20184;-66
2023/03/08 09:55:26;;;;;;;23.80;14.07;;;;;;;;;;5056265;28;20701;-67
2023/03/08 09:57:57;;;;;;;20.70;14.07;;;;;;;;;;5057551;28;20199;-68
2023/03/08 10:00:29;;;;;;;24.60;13.63;;;;;;;;;;5056387;28;20849;-67
2023/03/08 10:03:12;;;;;;;21.75;13.13;;;;;;;;;;5056369;28;20197;-67
2023/03/08 10:05:42;;;;;;;21.38;14.45;;;;;;;;;;5047300;28;20196;-69
2023/03/08 10:08:14;;;;;;;48.40;23.17;;;;;;;;;;5055396;28;20286;-68
2023/03/08 10:10:46;;;;;;;44.25;26.35;;;;;;;;;;5056324;28;20196;-67
2023/03/08 10:13:32;;;;;;;31.00;18.83;;;;;;;;;;5055914;28;20189;-67
2023/03/08 10:16:06;;;;;;;27.17;17.40;;;;;;;;;;5056423;28;20215;-68
2023/03/08 10:18:37;;;;;;;27.45;16.02;;;;;;;;;;5055553;28;20205;-68
2023/03/08 10:21:07;;;;;;;22.00;15.00;;;;;;;;;;5056177;28;20200;-68
2023/03/08 10:23:36;;;;;;;19.50;13.57;;;;;;;;;;5055905;28;20235;-67
2023/03/08 10:26:06;;;;;;;23.83;14.10;;;;;;;;;;5056497;28;20227;-67
2023/03/08 10:28:36;;;;;;;20.55;12.90;;;;;;;;;;5056099;28;20204;-67
2023/03/08 10:31:17;;;;;;;22.85;14.10;;;;;;;;;;5054894;28;20234;-67
2023/03/08 10:33:47;;;;;;;22.42;13.50;;;;;;;;;;5055301;28;20189;-67
2023/03/08 10:36:18;;;;;;;21.58;15.60;;;;;;;;;;5053122;28;20825;-66
2023/03/08 10:38:57;;;;;;;18.20;12.82;;;;;;;;;;5056931;28;20192;-67
2023/03/08 10:41:25;;;;;;;21.38;14.05;;;;;;;;;;5050986;28;20200;-67
2023/03/08 10:43:56;;;;;;;22.58;14.80;;;;;;;;;;5056235;28;20230;-68
2023/03/08 10:46:27;;;;;;;22.92;14.65;;;;;;;;;;5053218;28;20192;-68
2023/03/08 10:48:55;;;;;;;22.60;15.52;;;;;;;;;;5054460;28;20430;-68
2023/03/08 10:51:24;;;;;;;27.10;15.40;;;;;;;;;;5052930;28;20601;-68
2023/03/08 10:53:54;;;;;;;26.27;15.20;;;;;;;;;;5053114;28;20205;-68
2023/03/08 10:56:24;;;;;;;25.30;15.55;;;;;;;;;;5051930;28;20283;-68
2023/03/08 10:58:56;;;;;;;25.45;17.30;;;;;;;;;;5053789;28;20254;-68
2023/03/08 11:01:26;;;;;;;27.75;17.15;;;;;;;;;;5051691;28;20192;-68
2023/03/08 11:04:01;;;;;;;26.42;14.93;;;;;;;;;;5052070;28;20215;-68
2023/03/08 11:06:29;;;;;;;21.02;15.07;;;;;;;;;;5053830;28;20567;-68
2023/03/08 11:08:59;;;;;;;24.70;16.15;;;;;;;;;;5054095;28;20188;-68
2023/03/08 11:11:27;;;;;;;22.83;14.65;;;;;;;;;;5053572;28;20664;-68
2023/03/08 11:13:57;;;;;;;25.55;15.95;;;;;;;;;;5053795;28;20204;-68
2023/03/08 11:16:35;;;;;;;23.42;16.60;;;;;;;;;;5054208;28;20216;-68
2023/03/08 11:19:07;;;;;;;20.05;13.55;;;;;;;;;;5053006;28;20192;-68
2023/03/08 11:21:41;;;;;;;17.80;13.95;;;;;;;;;;5053839;28;20219;-68
2023/03/08 11:24:17;;;;;;;22.15;15.02;;;;;;;;;;5053453;28;20583;-68
2023/03/08 11:26:49;;;;;;;18.98;14.75;;;;;;;;;;5052701;28;20188;-68
2023/03/08 11:29:25;;;;;;;20.73;14.35;;;;;;;;;;5054369;28;20205;-68
2023/03/08 11:31:58;;;;;;;21.70;14.15;;;;;;;;;;5053917;28;20242;-68
2023/03/08 11:34:40;;;;;;;17.10;12.82;;;;;;;;;;5035010;28;20544;-68
2023/03/08 11:37:13;;;;;;;17.67;13.45;;;;;;;;;;5052499;28;20200;-67
2023/03/08 11:39:44;;;;;;;19.45;13.38;;;;;;;;;;5052534;28;20199;-67
2023/03/08 11:42:17;;;;;;;20.52;13.05;;;;;;;;;;5052444;28;20181;-67
2023/03/08 11:45:08;;;;;;;17.20;12.73;;;;;;;;;;5052948;28;20725;-68
2023/03/08 11:47:43;;;;;;;18.45;13.23;;;;;;;;;;5052586;28;20189;-68
2023/03/08 11:50:15;;;;;;;16.33;12.55;;;;;;;;;;5052960;28;20994;-68
2023/03/08 11:52:48;;;;;;;17.83;12.88;;;;;;;;;;5049861;28;20204;-68
2023/03/08 11:55:36;;;;;;;17.35;11.98;;;;;;;;;;5053291;28;20189;-68
2023/03/08 11:58:10;;;;;;;14.80;11.18;;;;;;;;;;5052563;28;20652;-67
2023/03/08 12:00:41;;;;;;;15.10;11.00;;;;;;;;;;5051559;28;20195;-68
2023/03/08 12:03:14;;;;;;;19.08;11.43;;;;;;;;;;5052187;28;20827;-68
2023/03/08 12:05:44;;;;;;;17.85;12.27;;;;;;;;;;5049683;28;20582;-67
2023/03/08 12:08:15;;;;;;;17.23;11.18;;;;;;;;;;5049520;28;20289;-67
2023/03/08 12:10:48;;;;;;;15.40;11.25;;;;;;;;;;5049350;28;20203;-68
2023/03/08 12:13:21;;;;;;;12.80;11.50;;;;;;;;;;5050488;28;20565;-68
2023/03/08 12:15:55;;;;;;;15.23;9.35;;;;;;;;;;5048289;28;20566;-68
2023/03/08 12:18:28;;;;;;;13.23;9.73;;;;;;;;;;5049528;28;20200;-68
2023/03/08 12:21:01;;;;;;;13.60;10.05;;;;;;;;;;5050475;28;20207;-68
2023/03/08 12:23:32;;;;;;;12.05;9.75;;;;;;;;;;5049866;28;20620;-67
2023/03/08 12:26:03;;;;;;;14.43;8.65;;;;;;;;;;5050797;28;20204;-68
2023/03/08 12:28:35;;;;;;;10.25;7.20;;;;;;;;;;5050664;28;20552;-68
2023/03/08 12:31:09;;;;;;;12.55;9.43;;;;;;;;;;5050500;28;20668;-67
2023/03/08 12:33:37;;;;;;;10.40;8.10;;;;;;;;;;5050163;28;20192;-68
2023/03/08 12:36:06;;;;;;;9.95;7.85;;;;;;;;;;5051944;28;20216;-68
2023/03/08 12:38:36;;;;;;;12.57;7.90;;;;;;;;;;5052294;28;20209;-68
2023/03/08 12:41:06;;;;;;;7.63;6.75;;;;;;;;;;5049729;28;20196;-68
2023/03/08 12:43:36;;;;;;;8.15;6.93;;;;;;;;;;5049520;28;20207;-66
2023/03/08 12:46:08;;;;;;;7.18;6.35;;;;;;;;;;5049496;28;20188;-66
2023/03/08 12:48:38;;;;;;;10.95;7.28;;;;;;;;;;5048666;28;20193;-66
2023/03/08 12:51:09;;;;;;;7.20;5.40;;;;;;;;;;5050074;28;20201;-67
2023/03/08 12:53:39;;;;;;;7.22;5.95;;;;;;;;;;5050200;28;20193;-67
2023/03/08 12:56:22;;;;;;;9.57;6.35;;;;;;;;;;5049963;28;20200;-66
2023/03/08 12:58:51;;;;;;;4.70;4.22;;;;;;;;;;5049946;28;20231;-67
2023/03/08 13:01:35;;;;;;;4.88;4.45;;;;;;;;;;5051224;28;20204;-67
2023/03/08 13:04:05;;;;;;;4.63;4.22;;;;;;;;;;5051155;28;20193;-66
2023/03/08 13:06:51;;;;;;;3.60;3.33;;;;;;;;;;5052717;28;20258;-69
2023/03/08 13:09:22;;;;;;;2.88;2.67;;;;;;;;;;5052652;28;20559;-68
2023/03/08 13:11:52;;;;;;;2.63;2.42;;;;;;;;;;5052401;28;20576;-68
2023/03/08 13:14:25;;;;;;;3.78;1.83;;;;;;;;;;5052516;28;20585;-68
2023/03/08 13:16:54;;;;;;;1.67;1.58;;;;;;;;;;5051063;28;20209;-68
2023/03/08 13:19:26;;;;;;;1.40;1.30;;;;;;;;;;5052320;28;20206;-67
2023/03/08 13:21:59;;;;;;;2.25;1.17;;;;;;;;;;5051992;28;20689;-66
2023/03/08 13:24:36;;;;;;;2.08;1.45;;;;;;;;;;5051151;28;20213;-67
2023/03/08 13:27:13;;;;;;;1.40;1.15;;;;;;;;;;5051178;28;20348;-67
2023/03/08 13:29:43;;;;;;;1.02;1.00;;;;;;;;;;5056391;28;20197;-67
2023/03/08 13:32:14;;;;;;;3.90;2.00;;;;;;;;;;5015560;28;20186;-67
2023/03/08 13:34:45;;;;;;;2.53;1.30;;;;;;;;;;5016197;28;20186;-67
2023/03/08 13:37:23;;;;;;;1.77;1.23;;;;;;;;;;5017229;28;20213;-67
2023/03/08 13:39:54;;;;;;;1.00;0.90;;;;;;;;;;5017362;28;20194;-67
2023/03/08 13:42:23;;;;;;;1.50;1.30;;;;;;;;;;5015826;28;20201;-67
2023/03/08 13:44:52;;;;;;;1.52;1.05;;;;;;;;;;5015879;28;20201;-67
2023/03/08 13:47:24;;;;;;;1.10;1.00;;;;;;;;;;5014782;28;20200;-67
2023/03/08 13:49:54;;;;;;;1.58;1.45;;;;;;;;;;5014611;28;20197;-67
2023/03/08 13:52:23;;;;;;;2.55;1.30;;;;;;;;;;5012567;28;20764;-67
2023/03/08 13:54:53;;;;;;;0.98;0.98;;;;;;;;;;5014715;28;20580;-67
2023/03/08 13:57:23;;;;;;;1.08;1.05;;;;;;;;;;5014026;28;20665;-67
2023/03/08 13:59:52;;;;;;;1.25;1.15;;;;;;;;;;5012336;28;20204;-67
2023/03/08 14:02:21;;;;;;;1.02;0.93;;;;;;;;;;5010301;28;20548;-68
2023/03/08 14:04:50;;;;;;;1.23;0.95;;;;;;;;;;5015411;28;20224;-68
2023/03/08 14:07:21;;;;;;;1.08;0.98;;;;;;;;;;5011323;28;20212;-68
2023/03/08 14:09:49;;;;;;;1.23;1.13;;;;;;;;;;5014623;28;20194;-68
2023/03/08 14:12:19;;;;;;;1.00;1.00;;;;;;;;;;5015813;28;20641;-68
2023/03/08 14:14:48;;;;;;;1.00;0.90;;;;;;;;;;5013140;28;20240;-68
2023/03/08 14:17:19;;;;;;;1.10;1.10;;;;;;;;;;5014458;28;20641;-68
2023/03/08 14:19:52;;;;;;;1.30;1.20;;;;;;;;;;5014554;28;20208;-68
2023/03/08 14:22:23;;;;;;;1.80;0.93;;;;;;;;;;5012339;28;20187;-69
2023/03/08 14:24:56;;;;;;;1.35;1.02;;;;;;;;;;5015550;28;20579;-69
2023/03/08 14:27:37;;;;;;;1.02;0.90;;;;;;;;;;5015056;28;20206;-68
2023/03/08 14:30:11;;;;;;;1.75;1.65;;;;;;;;;;5020956;28;20290;-69
2023/03/08 14:32:41;;;;;;;1.73;1.50;;;;;;;;;;5055314;28;20528;-68
2023/03/08 14:35:16;;;;;;;1.00;0.97;;;;;;;;;;5054002;28;20617;-68
2023/03/08 14:37:46;;;;;;;1.20;1.10;;;;;;;;;;5054333;28;20613;-68
2023/03/08 14:40:25;;;;;;;1.00;1.00;;;;;;;;;;5053508;28;20589;-69
2023/03/08 14:42:55;;;;;;;2.00;1.23;;;;;;;;;;5050179;28;20614;-68
2023/03/08 14:45:25;;;;;;;1.40;1.30;;;;;;;;;;5054615;28;20617;-68